createdAt,value
2023-02-14T08:48:16.579Z,-0.10
2023-02-14T08:50:45.191Z,-0.10
2023-02-14T08:53:15.148Z,-0.10
2023-02-14T08:55:43.692Z,0.00
2023-02-14T08:58:12.445Z,0.10
2023-02-14T09:00:41.122Z,0.10
2023-02-14T09:03:10.796Z,0.20
2023-02-14T09:05:40.963Z,0.20
2023-02-14T09:08:09.614Z,0.20
2023-02-14T09:10:38.457Z,0.20
2023-02-14T09:13:07.516Z,0.40
2023-02-14T09:15:36.115Z,0.40
2023-02-14T09:18:04.760Z,0.40
2023-02-14T09:20:33.323Z,0.40
2023-02-14T09:23:03.405Z,0.40
2023-02-14T09:25:32.367Z,0.40
2023-02-14T09:28:01.436Z,0.50
2023-02-14T09:30:30.332Z,0.50
2023-02-14T09:32:59.005Z,0.50
2023-02-14T09:35:44.963Z,0.50
2023-02-14T09:38:18.025Z,0.60
2023-02-14T09:40:47.167Z,0.60
2023-02-14T09:43:22.314Z,0.70
2023-02-14T09:45:55.902Z,0.90
2023-02-14T09:48:30.548Z,0.90
2023-02-14T09:51:03.581Z,1.10
2023-02-14T09:53:36.280Z,1.20
2023-02-14T09:56:11.877Z,1.20
2023-02-14T09:58:49.871Z,1.10
2023-02-14T10:01:23.766Z,1.10
2023-02-14T10:04:22.466Z,1.20
2023-02-14T10:06:53.820Z,1.30
2023-02-14T10:09:39.750Z,1.50
2023-02-14T10:12:15.802Z,1.40
2023-02-14T10:14:45.201Z,1.30
2023-02-14T10:17:20.962Z,1.50
2023-02-14T10:19:53.433Z,1.50
2023-02-14T10:22:26.282Z,1.50
2023-02-14T10:25:01.357Z,1.40
2023-02-14T10:27:32.119Z,1.40
2023-02-14T10:30:02.569Z,1.50
2023-02-14T10:32:45.080Z,1.70
2023-02-14T10:35:24.882Z,1.70
2023-02-14T10:38:04.081Z,1.70
2023-02-14T10:41:01.196Z,1.90
2023-02-14T10:43:38.077Z,1.80
2023-02-14T10:46:17.797Z,1.80
2023-02-14T10:48:58.002Z,1.70
2023-02-14T10:51:34.246Z,1.70
2023-02-14T10:54:18.036Z,1.70
2023-02-14T10:56:53.330Z,1.90
2023-02-14T10:59:27.120Z,1.80
2023-02-14T11:01:57.661Z,1.70
2023-02-14T11:04:26.844Z,1.60
2023-02-14T11:06:55.454Z,1.50
2023-02-14T11:09:23.991Z,1.60
2023-02-14T11:11:56.800Z,1.70
2023-02-14T11:14:28.841Z,1.90
2023-02-14T11:16:58.984Z,1.90
2023-02-14T11:19:29.638Z,1.90
2023-02-14T11:22:00.156Z,1.80
2023-02-14T11:24:32.102Z,2.00
2023-02-14T11:27:05.409Z,2.10
2023-02-14T11:29:37.773Z,2.10
2023-02-14T11:32:11.700Z,2.10
2023-02-14T11:34:42.698Z,2.20
2023-02-14T11:37:28.781Z,2.30
2023-02-14T11:39:59.702Z,2.40
2023-02-14T11:42:41.728Z,2.60
2023-02-14T11:45:29.119Z,2.50
2023-02-14T11:48:22.357Z,2.50
2023-02-14T11:51:00.435Z,2.70
2023-02-14T11:53:33.527Z,2.60
2023-02-14T11:56:02.318Z,2.40
2023-02-14T11:58:35.437Z,2.40
2023-02-14T12:01:04.442Z,2.40
2023-02-14T12:03:41.023Z,2.40
2023-02-14T12:06:09.976Z,2.40
2023-02-14T12:08:41.818Z,2.60
2023-02-14T12:11:22.408Z,2.60
2023-02-14T12:13:57.065Z,2.60
2023-02-14T12:16:30.186Z,2.80
2023-02-14T12:19:04.032Z,2.70
2023-02-14T12:21:43.559Z,2.60
2023-02-14T12:24:21.400Z,2.50
2023-02-14T12:26:58.867Z,2.40
2023-02-14T12:29:35.136Z,2.60
2023-02-14T12:32:17.773Z,2.70
2023-02-14T12:34:46.527Z,2.70
2023-02-14T12:37:24.768Z,2.80
2023-02-14T12:40:06.488Z,2.90
2023-02-14T12:42:49.938Z,3.00
2023-02-14T12:45:27.395Z,3.00
2023-02-14T12:48:07.108Z,2.80
2023-02-14T12:50:48.185Z,2.70
2023-02-14T12:53:48.830Z,2.90
2023-02-14T12:56:27.748Z,2.80
2023-02-14T12:59:04.191Z,2.80
2023-02-14T13:02:00.529Z,2.90
2023-02-14T13:04:50.190Z,2.90
2023-02-14T13:07:37.814Z,2.90
2023-02-14T13:10:23.926Z,2.80
2023-02-14T13:13:00.366Z,2.90
2023-02-14T13:15:36.965Z,2.90
2023-02-14T13:18:15.506Z,3.00
2023-02-14T13:20:54.335Z,2.90
2023-02-14T13:23:28.529Z,2.80
2023-02-14T13:26:02.365Z,2.90
2023-02-14T13:28:32.639Z,3.00
2023-02-14T13:31:02.651Z,2.90
2023-02-14T13:33:38.219Z,2.80
2023-02-14T13:36:10.185Z,2.80
2023-02-14T13:38:44.289Z,2.90
2023-02-14T13:41:14.115Z,2.90
2023-02-14T13:43:55.080Z,2.80
2023-02-14T13:46:49.110Z,2.50
2023-02-14T13:49:30.583Z,2.60
2023-02-14T13:52:02.900Z,2.70
2023-02-14T13:54:37.552Z,2.80
2023-02-14T13:57:31.663Z,2.90
2023-02-14T14:00:39.300Z,2.90
2023-02-14T14:03:13.662Z,2.90
2023-02-14T14:06:08.965Z,2.90
2023-02-14T14:08:57.199Z,2.90
2023-02-14T14:12:01.982Z,2.80
2023-02-14T14:14:38.137Z,2.90
2023-02-14T14:17:26.229Z,2.70
2023-02-14T14:19:55.106Z,2.70
2023-02-14T14:22:25.829Z,2.70
2023-02-14T14:25:00.368Z,2.80
2023-02-14T14:27:33.766Z,2.90
2023-02-14T14:30:03.820Z,2.80
2023-02-14T14:32:34.073Z,2.70
2023-02-14T14:35:04.994Z,2.70
2023-02-14T14:37:36.438Z,2.70
2023-02-14T14:40:08.398Z,2.70
2023-02-14T14:42:40.451Z,2.80
2023-02-14T14:45:20.419Z,2.90
2023-02-14T14:47:50.312Z,2.80
2023-02-14T14:50:23.238Z,2.80
2023-02-14T14:52:55.905Z,2.80
2023-02-14T14:55:27.858Z,2.80
2023-02-14T14:57:59.035Z,2.80
2023-02-14T15:00:30.689Z,2.80
2023-02-14T15:03:06.041Z,2.90
2023-02-14T15:05:37.400Z,2.80
2023-02-14T15:08:23.262Z,2.70
2023-02-14T15:10:55.773Z,2.70
2023-02-14T15:13:49.690Z,2.80
2023-02-14T15:16:20.583Z,2.70
2023-02-14T15:18:50.322Z,2.50
2023-02-14T15:21:19.303Z,2.50
2023-02-14T15:23:50.489Z,2.50
2023-02-14T15:26:21.634Z,2.50
2023-02-14T15:28:57.768Z,2.50
2023-02-14T15:31:31.812Z,2.50
2023-02-14T15:34:02.954Z,2.40
2023-02-14T15:36:33.815Z,2.40
2023-02-14T15:39:07.031Z,2.40
2023-02-14T15:41:35.633Z,2.40
2023-02-14T15:44:04.377Z,2.40
2023-02-14T15:46:36.886Z,2.40
2023-02-14T15:49:11.633Z,2.40
2023-02-14T15:51:40.952Z,2.20
2023-02-14T15:54:21.254Z,2.00
2023-02-14T15:56:52.834Z,1.90
2023-02-14T15:59:23.793Z,1.90
2023-02-14T16:01:55.217Z,1.90
2023-02-14T16:04:27.007Z,2.00
2023-02-14T16:07:20.108Z,2.00
2023-02-14T16:09:51.478Z,1.90
2023-02-14T16:12:31.649Z,1.90
2023-02-14T16:15:11.204Z,1.90
2023-02-14T16:17:42.161Z,1.90
2023-02-14T16:20:41.971Z,1.90
2023-02-14T16:23:26.646Z,1.90
2023-02-14T16:25:58.516Z,1.80
2023-02-14T16:28:30.597Z,1.80
2023-02-14T16:31:03.277Z,1.80
2023-02-14T16:33:35.419Z,1.70
2023-02-14T16:36:09.552Z,1.70
2023-02-14T16:38:43.981Z,1.70
2023-02-14T16:41:21.616Z,1.70
2023-02-14T16:43:50.579Z,1.70
2023-02-14T16:46:21.447Z,1.70
2023-02-14T16:48:52.661Z,1.60
2023-02-14T16:51:23.969Z,1.60
2023-02-14T16:53:52.938Z,1.60
2023-02-14T16:56:27.432Z,1.60
2023-02-14T16:58:58.462Z,1.60
2023-02-14T17:01:27.404Z,1.60
2023-02-14T17:03:55.970Z,1.70
2023-02-14T17:06:28.226Z,1.70
2023-02-14T17:08:59.716Z,1.70
2023-02-14T17:11:32.724Z,1.70
2023-02-14T17:14:01.394Z,1.60
2023-02-14T17:16:32.490Z,1.60
2023-02-14T17:19:03.292Z,1.60
2023-02-14T17:21:32.234Z,1.60
2023-02-14T17:24:00.806Z,1.60
2023-02-14T17:26:31.036Z,1.60
2023-02-14T17:28:59.628Z,1.60
2023-02-14T17:31:28.798Z,1.60
2023-02-14T17:33:57.344Z,1.60
2023-02-14T17:36:26.595Z,1.60
2023-02-14T17:38:56.242Z,1.60
2023-02-14T17:41:27.038Z,1.60
2023-02-14T17:44:00.420Z,1.70
2023-02-14T17:46:29.819Z,1.60
2023-02-14T17:49:01.924Z,1.60
2023-02-14T17:51:30.839Z,1.60
2023-02-14T17:53:59.485Z,1.60
2023-02-14T17:56:28.416Z,1.50
2023-02-14T17:58:58.365Z,1.60
2023-02-14T18:01:28.633Z,1.60
2023-02-14T18:03:57.268Z,1.60
2023-02-14T18:06:26.756Z,1.60
2023-02-14T18:08:57.175Z,1.50
2023-02-14T18:11:28.020Z,1.50
2023-02-14T18:13:59.806Z,1.50
2023-02-14T18:16:28.744Z,1.50
2023-02-14T18:18:57.623Z,1.60
2023-02-14T18:21:26.224Z,1.60
2023-02-14T18:23:54.808Z,1.60
2023-02-14T18:26:23.390Z,1.50
2023-02-14T18:28:52.134Z,1.50
2023-02-14T18:31:22.717Z,1.50
2023-02-14T18:33:52.046Z,1.50
2023-02-14T18:36:24.427Z,1.40
2023-02-14T18:38:54.922Z,1.30
2023-02-14T18:41:24.883Z,1.30
2023-02-14T18:43:53.660Z,1.30
2023-02-14T18:46:25.753Z,1.40
2023-02-14T18:48:54.640Z,1.50
2023-02-14T18:51:25.614Z,1.60
2023-02-14T18:53:55.066Z,1.60
2023-02-14T18:56:25.695Z,1.40
2023-02-14T18:58:57.686Z,1.30
2023-02-14T19:01:30.782Z,1.30
2023-02-14T19:04:01.567Z,1.20
2023-02-14T19:06:32.524Z,1.20
